Time;durP1;ratioP1;P1;durP2;ratioP2;P2;SDS_P1;SDS_P2;PMS_P1;PMS_P2;Temp;Humidity;BMP_temperature;BMP_pressure;BME280_temperature;BME280_humidity;BME280_pressure;Samples;Min_cycle;Max_cycle;Signal;HPM_P1;HPM_P2
2023/08/29 00:00:59;;;;;;;3.20;1.63;;;21.10;58.40;;;;;;5074114;28;20191;-57
2023/08/29 00:03:27;;;;;;;1.92;1.45;;;21.20;58.50;;;;;;5073201;28;20215;-53
2023/08/29 00:06:01;;;;;;;2.63;1.50;;;21.20;58.50;;;;;;5073543;28;20191;-57
2023/08/29 00:08:29;;;;;;;2.10;1.45;;;21.20;58.50;;;;;;5073702;28;20305;-56
2023/08/29 00:10:56;;;;;;;2.20;1.40;;;21.10;58.40;;;;;;5072538;28;20190;-52
2023/08/29 00:13:23;;;;;;;2.72;1.40;;;21.20;58.50;;;;;;5073040;28;20796;-55
2023/08/29 00:15:50;;;;;;;2.75;1.40;;;21.20;58.50;;;;;;5073360;28;20190;-56
2023/08/29 00:18:19;;;;;;;4.32;1.80;;;21.20;58.50;;;;;;5072781;28;20274;-56
2023/08/29 00:20:45;;;;;;;3.13;1.63;;;21.20;58.40;;;;;;5073364;28;20191;-54
2023/08/29 00:23:12;;;;;;;4.32;1.70;;;21.20;58.50;;;;;;5072664;28;20282;-56
2023/08/29 00:25:41;;;;;;;3.97;1.40;;;21.10;58.30;;;;;;5072833;28;20187;-52
2023/08/29 00:28:08;;;;;;;2.92;1.30;;;21.10;58.30;;;;;;5073011;28;20277;-56
2023/08/29 00:30:36;;;;;;;6.72;1.55;;;21.10;58.30;;;;;;5073120;28;20195;-56
2023/08/29 00:33:03;;;;;;;2.72;1.50;;;21.20;58.40;;;;;;5072834;28;20191;-51
2023/08/29 00:35:30;;;;;;;2.08;1.50;;;21.10;58.30;;;;;;5072984;28;20197;-51
2023/08/29 00:37:57;;;;;;;2.80;1.50;;;21.10;58.20;;;;;;5073024;28;20186;-55
2023/08/29 00:40:30;;;;;;;2.65;1.70;;;21.10;58.20;;;;;;5072247;28;20230;-56
2023/08/29 00:42:58;;;;;;;2.72;1.65;;;21.10;58.20;;;;;;5072281;28;20191;-56
2023/08/29 00:45:26;;;;;;;3.53;1.73;;;21.10;58.20;;;;;;5073050;28;20215;-57
2023/08/29 00:47:53;;;;;;;2.10;1.50;;;21.10;58.20;;;;;;5072418;28;20307;-54
2023/08/29 00:50:20;;;;;;;3.15;1.67;;;21.10;58.20;;;;;;5073043;28;20334;-55
2023/08/29 00:52:48;;;;;;;2.53;1.45;;;21.10;58.20;;;;;;5072696;28;20269;-56
2023/08/29 00:55:16;;;;;;;1.90;1.40;;;21.10;58.20;;;;;;5072307;28;20231;-55
2023/08/29 00:57:43;;;;;;;2.55;1.60;;;21.10;58.20;;;;;;5072869;28;20191;-56
2023/08/29 01:00:12;;;;;;;2.55;1.35;;;21.10;58.20;;;;;;5072746;28;20321;-56
2023/08/29 01:02:39;;;;;;;4.97;1.83;;;21.10;58.20;;;;;;5072264;28;20230;-53
2023/08/29 01:05:06;;;;;;;1.52;1.35;;;21.00;58.10;;;;;;5072567;28;20301;-52
2023/08/29 01:07:33;;;;;;;3.45;1.65;;;21.10;58.10;;;;;;5072482;28;20191;-57
2023/08/29 01:10:00;;;;;;;2.08;1.77;;;21.10;58.10;;;;;;5071789;28;20305;-56
2023/08/29 01:12:42;;;;;;;4.13;1.63;;;21.10;58.10;;;;;;5072183;28;20194;-55
2023/08/29 01:15:13;;;;;;;3.90;1.65;;;21.10;58.00;;;;;;5072460;28;20227;-50
2023/08/29 01:17:45;;;;;;;3.30;1.80;;;21.10;58.00;;;;;;5072086;28;20273;-56
2023/08/29 01:20:14;;;;;;;2.60;1.45;;;21.10;58.10;;;;;;5072457;28;20230;-56
2023/08/29 01:22:53;;;;;;;4.10;1.65;;;21.10;58.00;;;;;;5072325;28;20747;-55
2023/08/29 01:25:27;;;;;;;4.38;1.80;;;21.10;58.00;;;;;;5071960;28;20222;-56
2023/08/29 01:27:56;;;;;;;2.05;1.40;;;21.00;57.90;;;;;;5072390;28;20197;-56
2023/08/29 01:30:23;;;;;;;2.33;1.58;;;21.00;57.90;;;;;;5072514;28;20488;-50
2023/08/29 01:32:51;;;;;;;3.08;1.48;;;21.00;57.90;;;;;;5072025;28;20290;-56
2023/08/29 01:35:18;;;;;;;1.65;1.40;;;21.10;57.90;;;;;;5072002;28;20218;-56
2023/08/29 01:37:45;;;;;;;3.13;1.45;;;21.00;57.80;;;;;;5071976;28;20187;-56
2023/08/29 01:40:12;;;;;;;2.00;1.38;;;21.00;57.80;;;;;;5071558;28;20231;-54
2023/08/29 01:42:39;;;;;;;1.63;1.38;;;21.00;57.80;;;;;;5071875;28;20187;-52
2023/08/29 01:45:08;;;;;;;2.97;1.60;;;21.00;57.80;;;;;;5072398;28;20305;-56
2023/08/29 01:47:35;;;;;;;2.75;1.40;;;21.00;57.80;;;;;;5071068;28;20277;-56
2023/08/29 01:50:03;;;;;;;1.88;1.23;;;21.00;57.80;;;;;;5072317;28;20221;-56
2023/08/29 01:52:31;;;;;;;2.90;1.67;;;21.00;57.80;;;;;;5072059;28;20198;-55
2023/08/29 01:54:58;;;;;;;3.70;1.67;;;20.90;57.70;;;;;;5071683;28;20329;-54
2023/08/29 01:57:25;;;;;;;3.40;1.60;;;21.00;57.70;;;;;;5072051;28;20278;-54
2023/08/29 01:59:52;;;;;;;2.67;1.35;;;20.90;57.60;;;;;;5072091;28;20322;-56
2023/08/29 02:02:21;;;;;;;4.05;1.40;;;21.00;57.70;;;;;;5071666;28;20618;-55
2023/08/29 02:04:48;;;;;;;2.83;1.55;;;21.00;57.70;;;;;;5071874;28;20297;-56
2023/08/29 02:07:15;;;;;;;3.30;1.60;;;21.00;57.70;;;;;;5071892;28;20191;-52
2023/08/29 02:09:42;;;;;;;2.17;1.48;;;20.90;57.50;;;;;;5071389;28;20377;-56
2023/08/29 02:12:09;;;;;;;2.10;1.38;;;21.00;57.60;;;;;;5072029;28;20197;-51
2023/08/29 02:14:35;;;;;;;3.20;1.70;;;21.00;57.60;;;;;;5071875;28;20250;-56
2023/08/29 02:17:03;;;;;;;3.08;1.35;;;21.00;57.50;;;;;;5071226;28;20361;-56
2023/08/29 02:19:31;;;;;;;2.65;1.33;;;21.00;57.50;;;;;;5071139;28;20724;-58
2023/08/29 02:21:58;;;;;;;2.40;1.40;;;21.00;57.50;;;;;;5071849;28;20274;-49
2023/08/29 02:24:25;;;;;;;4.13;1.52;;;21.00;57.50;;;;;;5071475;28;20214;-55
2023/08/29 02:26:52;;;;;;;2.60;1.40;;;21.00;57.50;;;;;;5071438;28;20563;-54
2023/08/29 02:29:18;;;;;;;2.63;1.35;;;21.00;57.50;;;;;;5071725;28;20229;-57
2023/08/29 02:31:45;;;;;;;2.53;1.50;;;21.00;57.50;;;;;;5071351;28;20559;-53
2023/08/29 02:34:12;;;;;;;2.05;1.33;;;20.90;57.30;;;;;;5069563;28;20242;-53
2023/08/29 02:36:42;;;;;;;1.63;1.45;;;21.00;57.40;;;;;;5056566;28;20282;-52
2023/08/29 02:39:09;;;;;;;1.73;1.30;;;20.90;57.30;;;;;;5061771;28;20327;-53
2023/08/29 02:41:36;;;;;;;1.80;1.40;;;20.90;57.30;;;;;;5051496;28;20234;-51
2023/08/29 02:44:03;;;;;;;3.25;1.70;;;21.00;57.40;;;;;;5051325;28;20314;-52
2023/08/29 02:46:30;;;;;;;4.40;1.33;;;21.00;57.40;;;;;;5052861;28;20227;-50
2023/08/29 02:48:56;;;;;;;2.38;1.30;;;20.90;57.20;;;;;;5054721;28;20222;-57
2023/08/29 02:51:23;;;;;;;3.03;1.50;;;20.90;57.30;;;;;;5054749;28;20188;-53
2023/08/29 02:53:51;;;;;;;4.75;1.35;;;20.90;57.30;;;;;;5054720;28;20223;-51
2023/08/29 02:56:19;;;;;;;3.47;1.42;;;20.90;57.30;;;;;;5054839;28;20231;-50
2023/08/29 02:58:46;;;;;;;3.95;1.58;;;20.90;57.30;;;;;;5055051;28;20220;-55
2023/08/29 03:01:13;;;;;;;1.75;1.50;;;20.90;57.30;;;;;;5054425;28;20211;-51
2023/08/29 03:03:40;;;;;;;1.75;1.08;;;20.90;57.20;;;;;;5054769;28;20480;-51
2023/08/29 03:06:07;;;;;;;2.88;1.40;;;21.00;57.40;;;;;;5054829;28;20206;-53
2023/08/29 03:08:34;;;;;;;2.92;1.45;;;20.90;57.20;;;;;;5054068;28;20216;-54
2023/08/29 03:11:05;;;;;;;1.92;1.33;;;20.90;57.20;;;;;;5054367;28;20612;-55
2023/08/29 03:13:32;;;;;;;2.78;1.27;;;20.90;57.20;;;;;;5054639;28;20187;-54
2023/08/29 03:15:59;;;;;;;2.35;1.30;;;20.90;57.20;;;;;;5054255;28;20191;-51
2023/08/29 03:18:26;;;;;;;1.73;1.15;;;20.80;57.10;;;;;;5054555;28;20314;-51
2023/08/29 03:20:53;;;;;;;2.42;1.00;;;20.90;57.20;;;;;;5054401;28;20215;-55
2023/08/29 03:23:20;;;;;;;1.80;1.33;;;20.90;57.20;;;;;;5053614;28;20279;-54
2023/08/29 03:25:47;;;;;;;1.67;1.33;;;20.90;57.20;;;;;;5054483;28;20198;-54
2023/08/29 03:28:15;;;;;;;1.60;1.20;;;20.90;57.10;;;;;;5053957;28;20187;-56
2023/08/29 03:30:43;;;;;;;1.65;1.40;;;20.90;57.10;;;;;;5054056;28;20192;-54
2023/08/29 03:33:09;;;;;;;2.53;1.20;;;20.90;57.10;;;;;;5054297;28;20188;-52
2023/08/29 03:35:36;;;;;;;1.95;1.40;;;20.90;57.00;;;;;;5054112;28;20416;-55
2023/08/29 03:38:03;;;;;;;1.75;1.48;;;20.90;57.00;;;;;;5053796;28;20302;-53
2023/08/29 03:40:30;;;;;;;2.38;1.33;;;20.90;57.00;;;;;;5054103;28;20329;-56
2023/08/29 03:42:57;;;;;;;1.70;1.27;;;20.90;57.00;;;;;;5054106;28;20199;-54
2023/08/29 03:45:25;;;;;;;2.17;1.40;;;20.90;56.90;;;;;;5053918;28;20215;-54
2023/08/29 03:47:52;;;;;;;2.50;1.20;;;20.90;57.00;;;;;;5053994;28;20214;-53
2023/08/29 03:50:21;;;;;;;1.80;1.23;;;20.90;56.90;;;;;;5054060;28;20653;-53
2023/08/29 03:52:47;;;;;;;2.28;1.15;;;20.90;56.90;;;;;;5053447;28;20187;-56
2023/08/29 03:55:14;;;;;;;3.38;1.20;;;20.90;56.90;;;;;;5053361;28;20710;-50
2023/08/29 03:57:41;;;;;;;1.95;1.27;;;20.90;56.90;;;;;;5053139;28;20199;-53
2023/08/29 04:00:10;;;;;;;3.08;1.40;;;20.90;56.80;;;;;;5053536;28;20227;-57
2023/08/29 04:02:39;;;;;;;2.22;1.33;;;20.80;56.70;;;;;;5053676;28;20183;-54
2023/08/29 04:05:14;;;;;;;1.80;1.50;;;20.80;56.70;;;;;;5053230;28;20915;-54
2023/08/29 04:07:41;;;;;;;2.08;1.50;;;20.80;56.70;;;;;;5052908;28;20195;-56
2023/08/29 04:10:08;;;;;;;2.45;1.30;;;20.80;57.30;;;;;;5053666;28;20229;-54
2023/08/29 04:12:35;;;;;;;2.75;1.25;;;20.80;56.70;;;;;;5053433;28;20278;-57
2023/08/29 04:15:02;;;;;;;2.22;1.30;;;20.80;56.70;;;;;;5053234;28;20215;-50
2023/08/29 04:17:29;;;;;;;1.90;1.20;;;20.90;56.70;;;;;;5053351;28;20241;-52
2023/08/29 04:19:58;;;;;;;1.58;1.10;;;20.80;56.60;;;;;;5053463;28;20235;-56
2023/08/29 04:22:25;;;;;;;2.20;1.10;;;20.80;56.60;;;;;;5052964;28;20211;-56
2023/08/29 04:24:52;;;;;;;2.17;1.30;;;20.80;56.60;;;;;;5053290;28;20222;-54
2023/08/29 04:27:20;;;;;;;1.50;1.40;;;20.80;56.50;;;;;;5053280;28;20606;-52
2023/08/29 04:29:46;;;;;;;2.60;1.40;;;20.80;56.60;;;;;;5052671;28;20273;-52
2023/08/29 04:32:13;;;;;;;5.28;1.42;;;20.80;56.60;;;;;;5052840;28;20745;-53
2023/08/29 04:34:40;;;;;;;2.05;1.40;;;20.80;56.50;;;;;;5053169;28;20223;-51
2023/08/29 04:37:08;;;;;;;4.13;1.40;;;20.80;56.60;;;;;;5052385;28;20184;-52
2023/08/29 04:39:35;;;;;;;1.77;1.27;;;20.80;56.60;;;;;;5052885;28;20211;-53
2023/08/29 04:42:02;;;;;;;4.85;1.38;;;20.80;56.50;;;;;;5052947;28;20191;-53
2023/08/29 04:44:30;;;;;;;2.00;1.60;;;20.80;56.50;;;;;;5052810;28;20219;-56
2023/08/29 04:46:57;;;;;;;2.22;1.40;;;20.80;56.50;;;;;;5052563;28;20654;-55
2023/08/29 04:49:24;;;;;;;2.08;1.20;;;20.80;56.60;;;;;;5052968;28;20306;-57
2023/08/29 04:51:51;;;;;;;1.58;1.25;;;20.80;56.50;;;;;;5052104;28;20194;-55
2023/08/29 04:54:19;;;;;;;2.17;1.52;;;20.80;56.40;;;;;;5052888;28;20212;-53
2023/08/29 04:56:46;;;;;;;1.75;1.27;;;20.80;56.50;;;;;;5052662;28;20324;-54
2023/08/29 04:59:12;;;;;;;2.75;1.25;;;20.80;56.40;;;;;;5052553;28;20310;-52
2023/08/29 05:01:39;;;;;;;1.58;1.35;;;20.80;56.40;;;;;;5052285;28;20226;-57
2023/08/29 05:04:07;;;;;;;1.95;1.42;;;20.70;56.30;;;;;;5052340;28;20218;-50
2023/08/29 05:06:34;;;;;;;2.72;1.20;;;20.80;56.50;;;;;;5052158;28;20191;-55
2023/08/29 05:09:01;;;;;;;2.47;1.38;;;20.80;56.40;;;;;;5052033;28;20225;-54
2023/08/29 05:11:29;;;;;;;2.22;1.45;;;20.70;56.30;;;;;;5052534;28;20279;-53
2023/08/29 05:13:56;;;;;;;2.10;1.20;;;20.70;56.40;;;;;;5052194;28;20212;-52
2023/08/29 05:16:23;;;;;;;3.45;1.33;;;20.80;56.40;;;;;;5052298;28;20207;-57
2023/08/29 05:18:50;;;;;;;2.95;1.40;;;20.70;56.40;;;;;;5052356;28;20211;-55
2023/08/29 05:21:17;;;;;;;3.42;1.95;;;20.80;56.40;;;;;;5051560;28;20215;-53
2023/08/29 05:23:43;;;;;;;3.22;2.00;;;20.80;56.40;;;;;;5052278;28;20786;-55
2023/08/29 05:26:10;;;;;;;2.00;1.67;;;20.80;56.40;;;;;;5052268;28;20192;-51
2023/08/29 05:28:38;;;;;;;1.77;1.27;;;20.80;56.50;;;;;;5051804;28;20198;-49
2023/08/29 05:31:05;;;;;;;2.40;1.52;;;20.80;56.50;;;;;;5051902;28;20660;-52
2023/08/29 05:33:32;;;;;;;2.17;1.40;;;20.80;56.50;;;;;;5051244;28;20199;-53
2023/08/29 05:35:59;;;;;;;1.63;1.35;;;20.80;57.10;;;;;;5052110;28;20199;-49
2023/08/29 05:38:27;;;;;;;2.28;1.77;;;20.80;56.50;;;;;;5052072;28;20187;-51
2023/08/29 05:40:55;;;;;;;2.97;1.38;;;20.80;56.50;;;;;;5052009;28;20230;-53
2023/08/29 05:43:22;;;;;;;2.50;1.52;;;20.80;56.60;;;;;;5051804;28;20202;-56
2023/08/29 05:45:50;;;;;;;2.75;1.50;;;20.80;56.60;;;;;;5052095;28;20270;-53
2023/08/29 05:48:17;;;;;;;3.35;1.58;;;20.80;56.80;;;;;;5052076;28;20191;-55
2023/08/29 05:50:44;;;;;;;3.92;1.40;;;20.80;56.70;;;;;;5051891;28;20233;-48
2023/08/29 05:53:11;;;;;;;2.42;1.40;;;20.80;57.00;;;;;;5052079;28;20199;-48
2023/08/29 05:55:38;;;;;;;3.13;1.60;;;20.80;57.70;;;;;;5051944;28;20235;-49
2023/08/29 05:58:05;;;;;;;3.78;1.55;;;20.90;58.20;;;;;;5051558;28;20203;-51
2023/08/29 06:00:32;;;;;;;4.20;1.40;;;20.80;58.90;;;;;;5051809;28;20702;-50
2023/08/29 06:03:03;;;;;;;5.53;1.63;;;20.80;60.20;;;;;;5051821;28;20192;-52
2023/08/29 06:05:31;;;;;;;2.95;1.30;;;20.90;59.70;;;;;;5051181;28;20629;-44
2023/08/29 06:08:00;;;;;;;3.38;1.63;;;20.90;59.50;;;;;;5051918;28;20297;-44
2023/08/29 06:10:28;;;;;;;4.53;1.60;;;20.90;59.60;;;;;;5051763;28;20564;-46
2023/08/29 06:12:55;;;;;;;2.70;1.30;;;20.90;59.50;;;;;;5051486;28;20219;-54
2023/08/29 06:15:22;;;;;;;3.17;1.55;;;20.90;59.60;;;;;;5051450;28;20216;-50
2023/08/29 06:17:49;;;;;;;3.72;1.33;;;20.80;59.40;;;;;;5051454;28;20195;-49
2023/08/29 06:20:17;;;;;;;2.75;1.30;;;20.90;59.60;;;;;;5052910;28;20221;-51
2023/08/29 06:22:44;;;;;;;6.47;1.50;;;20.80;59.30;;;;;;5055586;28;20279;-47
2023/08/29 06:25:12;;;;;;;1.70;1.00;;;20.80;59.40;;;;;;5055691;28;20219;-49
2023/08/29 06:27:38;;;;;;;1.88;1.30;;;20.90;59.30;;;;;;5055076;28;20271;-47
2023/08/29 06:30:07;;;;;;;2.47;1.40;;;20.90;59.20;;;;;;5055548;28;20651;-50
2023/08/29 06:32:35;;;;;;;1.35;1.23;;;20.80;59.10;;;;;;5055206;28;20198;-56
2023/08/29 06:35:03;;;;;;;4.72;1.50;;;20.80;59.00;;;;;;5054964;28;20226;-54
2023/08/29 06:37:31;;;;;;;1.60;1.15;;;20.80;58.90;;;;;;5054995;28;20188;-51
2023/08/29 06:39:58;;;;;;;5.75;2.13;;;20.80;58.90;;;;;;5055187;28;20273;-54
2023/08/29 06:42:25;;;;;;;5.78;1.55;;;20.80;58.90;;;;;;5054919;28;20226;-54
2023/08/29 06:44:56;;;;;;;4.07;1.20;;;20.80;58.80;;;;;;5055546;28;20227;-50
2023/08/29 06:47:24;;;;;;;1.50;1.33;;;20.70;58.70;;;;;;5054799;28;20188;-54
2023/08/29 06:49:52;;;;;;;2.05;1.30;;;20.80;58.70;;;;;;5054806;28;20222;-47
2023/08/29 06:52:19;;;;;;;2.08;1.48;;;20.80;58.70;;;;;;5055027;28;20207;-53
2023/08/29 06:54:47;;;;;;;1.40;1.10;;;20.70;58.60;;;;;;5054872;28;20247;-51
2023/08/29 06:57:14;;;;;;;1.92;1.40;;;20.80;58.60;;;;;;5054037;28;20729;-47
2023/08/29 06:59:41;;;;;;;2.35;1.13;;;20.80;58.50;;;;;;5054369;28;20215;-52
2023/08/29 07:02:08;;;;;;;2.38;1.30;;;20.80;58.50;;;;;;5056932;28;20254;-53
2023/08/29 07:04:36;;;;;;;1.55;1.20;;;20.80;59.10;;;;;;5071285;28;20222;-54
2023/08/29 07:07:02;;;;;;;3.08;1.50;;;20.80;58.40;;;;;;5064055;28;20201;-55
2023/08/29 07:09:30;;;;;;;2.65;1.20;;;20.80;58.30;;;;;;5071507;28;20257;-55
2023/08/29 07:11:59;;;;;;;1.73;1.40;;;20.80;58.10;;;;;;5069736;28;20677;-51
2023/08/29 07:14:26;;;;;;;2.33;1.30;;;20.80;58.10;;;;;;5069169;28;20214;-53
2023/08/29 07:16:54;;;;;;;6.75;1.50;;;20.90;58.10;;;;;;5057714;28;20200;-55
2023/08/29 07:19:22;;;;;;;2.78;1.67;;;20.90;58.00;;;;;;5052742;28;20219;-54
2023/08/29 07:21:49;;;;;;;3.55;1.50;;;20.90;57.90;;;;;;5053503;28;20292;-53
2023/08/29 07:24:16;;;;;;;2.47;1.20;;;21.00;57.90;;;;;;5060559;28;20214;-55
2023/08/29 07:26:43;;;;;;;5.95;1.75;;;21.00;57.80;;;;;;5072878;28;20237;-54
2023/08/29 07:29:12;;;;;;;3.58;1.70;;;21.00;57.90;;;;;;5071943;28;20219;-53
2023/08/29 07:31:39;;;;;;;5.72;1.92;;;21.10;58.00;;;;;;5057943;28;20205;-56
2023/08/29 07:34:06;;;;;;;3.78;1.48;;;21.00;57.90;;;;;;5073222;28;20221;-55
2023/08/29 07:36:33;;;;;;;3.40;1.42;;;21.20;58.00;;;;;;5072908;28;20286;-55
2023/08/29 07:39:00;;;;;;;4.00;1.40;;;21.20;58.00;;;;;;5070728;28;20212;-55
2023/08/29 07:41:27;;;;;;;4.90;1.92;;;21.20;57.80;;;;;;5063841;28;20214;-53
2023/08/29 07:43:54;;;;;;;6.55;1.75;;;21.20;57.90;;;;;;5090335;28;20236;-55
2023/08/29 07:46:22;;;;;;;14.60;1.75;;;21.20;57.90;;;;;;5072294;28;20183;-55
2023/08/29 07:48:50;;;;;;;4.20;1.38;;;21.20;58.00;;;;;;5069962;28;20194;-52
2023/08/29 07:51:17;;;;;;;6.07;1.88;;;21.30;58.10;;;;;;5072491;28;20202;-55
2023/08/29 07:53:44;;;;;;;6.85;1.80;;;21.30;58.00;;;;;;5072686;28;20274;-55
2023/08/29 07:56:11;;;;;;;5.55;1.60;;;21.30;58.00;;;;;;5080456;28;20234;-53
2023/08/29 07:58:38;;;;;;;2.67;1.60;;;21.30;58.00;;;;;;5091687;28;20651;-55
2023/08/29 08:01:05;;;;;;;3.78;1.77;;;21.40;58.00;;;;;;5064600;28;20245;-56
2023/08/29 08:03:34;;;;;;;6.85;1.40;;;21.40;58.00;;;;;;5060151;28;20256;-51
2023/08/29 08:06:01;;;;;;;3.33;1.40;;;21.30;57.90;;;;;;5072402;28;20225;-56
2023/08/29 08:08:28;;;;;;;2.40;1.45;;;21.40;58.00;;;;;;5071961;28;20223;-53
2023/08/29 08:10:55;;;;;;;3.40;1.65;;;21.40;58.00;;;;;;5072368;28;20268;-52
2023/08/29 08:13:22;;;;;;;5.53;1.98;;;21.40;58.00;;;;;;5067247;28;20604;-51
2023/08/29 08:15:49;;;;;;;2.58;1.45;;;21.40;57.90;;;;;;5080848;28;20254;-49
2023/08/29 08:18:16;;;;;;;5.57;1.73;;;21.40;58.60;;;;;;5072592;28;20191;-52
2023/08/29 08:20:44;;;;;;;2.60;1.42;;;21.50;58.00;;;;;;5072081;28;20264;-48
2023/08/29 08:23:12;;;;;;;3.72;1.88;;;21.50;58.00;;;;;;5072542;28;20187;-51
2023/08/29 08:25:38;;;;;;;5.70;1.60;;;21.50;57.90;;;;;;5072724;28;20301;-53
2023/08/29 08:28:06;;;;;;;5.20;1.70;;;21.50;57.90;;;;;;5071474;28;20191;-55
2023/08/29 08:30:35;;;;;;;2.97;1.73;;;21.50;57.90;;;;;;5072133;28;20298;-48
2023/08/29 08:33:02;;;;;;;2.33;1.55;;;21.50;57.90;;;;;;5071825;28;20775;-53
2023/08/29 08:35:29;;;;;;;3.08;1.70;;;21.60;57.90;;;;;;5071489;28;20221;-55
2023/08/29 08:37:57;;;;;;;5.13;1.80;;;21.60;57.90;;;;;;5071639;28;20865;-55
2023/08/29 08:40:24;;;;;;;6.20;1.50;;;21.60;57.90;;;;;;5071547;28;20210;-56
2023/08/29 08:42:51;;;;;;;2.63;1.73;;;21.60;57.80;;;;;;5071069;28;20301;-54
2023/08/29 08:45:20;;;;;;;5.35;1.67;;;21.50;57.70;;;;;;5070290;28;20222;-55
2023/08/29 08:47:47;;;;;;;6.32;1.50;;;21.50;57.70;;;;;;5070840;28;20644;-52
2023/08/29 08:50:14;;;;;;;3.25;1.50;;;21.60;57.80;;;;;;5070809;28;20234;-55
2023/08/29 08:52:42;;;;;;;2.08;1.35;;;21.60;57.80;;;;;;5071236;28;20290;-57
2023/08/29 08:55:11;;;;;;;3.20;1.90;;;21.60;57.70;;;;;;5071648;28;20314;-52
2023/08/29 08:57:38;;;;;;;4.70;1.20;;;21.60;57.80;;;;;;5070881;28;20198;-54
2023/08/29 09:00:07;;;;;;;2.70;1.38;;;21.60;57.70;;;;;;5071306;28;20219;-56
2023/08/29 09:02:36;;;;;;;2.50;1.65;;;21.60;57.70;;;;;;5071418;28;20225;-54
2023/08/29 09:05:03;;;;;;;4.68;1.77;;;21.60;57.70;;;;;;5061626;28;20214;-50
2023/08/29 09:07:30;;;;;;;8.20;1.52;;;21.60;57.70;;;;;;5070493;28;20274;-56
2023/08/29 09:10:09;;;;;;;6.43;1.60;;;21.60;57.70;;;;;;5071228;28;20711;-57
2023/08/29 09:12:46;;;;;;;2.15;1.40;;;21.60;57.70;;;;;;5061937;28;20202;-52
2023/08/29 09:15:16;;;;;;;3.03;1.38;;;21.60;57.70;;;;;;5060262;28;20712;-54
2023/08/29 09:17:47;;;;;;;3.50;1.50;;;21.60;57.70;;;;;;5070798;28;20186;-53
2023/08/29 09:20:14;;;;;;;2.33;1.50;;;21.70;57.70;;;;;;5071088;28;20296;-56
2023/08/29 09:22:43;;;;;;;3.33;1.35;;;21.60;57.60;;;;;;5071433;28;20218;-56
2023/08/29 09:25:11;;;;;;;2.67;1.50;;;21.60;57.40;;;;;;5070878;28;20317;-55
2023/08/29 09:27:44;;;;;;;4.68;1.40;;;21.60;58.00;;;;;;5069956;28;20190;-56
2023/08/29 09:30:13;;;;;;;3.00;1.52;;;21.70;57.50;;;;;;5070885;28;20214;-56
2023/08/29 09:32:43;;;;;;;2.38;1.58;;;21.70;57.50;;;;;;5070365;28;20273;-52
2023/08/29 09:35:13;;;;;;;5.80;1.38;;;21.70;57.40;;;;;;5071498;28;20222;-54
2023/08/29 09:37:42;;;;;;;5.00;1.50;;;21.70;57.50;;;;;;5071061;28;20229;-54
2023/08/29 09:40:10;;;;;;;4.03;1.45;;;21.70;57.50;;;;;;5070228;28;20226;-55
2023/08/29 09:42:38;;;;;;;4.10;1.75;;;21.70;57.60;;;;;;5070809;28;20211;-56
2023/08/29 09:45:08;;;;;;;3.58;1.77;;;21.70;57.60;;;;;;5071051;28;20187;-54
2023/08/29 09:47:36;;;;;;;4.38;1.58;;;21.70;57.60;;;;;;5070925;28;20384;-54
2023/08/29 09:50:04;;;;;;;2.97;1.42;;;21.70;57.50;;;;;;5070869;28;20266;-52
2023/08/29 09:52:31;;;;;;;1.63;1.10;;;21.70;57.50;;;;;;5071288;28;20727;-55
2023/08/29 09:54:59;;;;;;;4.88;1.52;;;21.70;57.50;;;;;;5071330;28;20187;-54
2023/08/29 09:57:31;;;;;;;2.90;1.48;;;21.70;57.60;;;;;;5093420;28;20636;-55
2023/08/29 09:59:59;;;;;;;1.92;1.23;;;21.80;57.70;;;;;;5095322;28;20281;-55
2023/08/29 10:02:31;;;;;;;2.42;1.50;;;21.70;57.60;;;;;;5075026;28;20254;-54
2023/08/29 10:05:05;;;;;;;2.63;1.40;;;21.70;58.20;;;;;;5074933;28;20879;-56
2023/08/29 10:07:39;;;;;;;2.60;1.30;;;21.70;57.60;;;;;;5072520;28;20190;-56
2023/08/29 10:10:09;;;;;;;2.30;1.08;;;21.80;57.70;;;;;;5054515;28;20191;-56
2023/08/29 10:12:36;;;;;;;2.95;1.52;;;21.80;57.70;;;;;;5054843;28;20191;-49
2023/08/29 10:15:05;;;;;;;13.35;2.70;;;21.80;57.60;;;;;;5084189;28;20290;-55
2023/08/29 10:17:34;;;;;;;2.35;1.50;;;21.80;57.60;;;;;;5094001;28;20575;-53
2023/08/29 10:20:04;;;;;;;9.15;1.17;;;21.80;57.50;;;;;;5082924;28;20265;-49
2023/08/29 10:22:31;;;;;;;3.75;1.27;;;21.80;57.40;;;;;;5064090;28;20297;-54
2023/08/29 10:25:00;;;;;;;2.85;1.42;;;21.80;57.40;;;;;;5073782;28;20201;-51
2023/08/29 10:27:27;;;;;;;5.55;1.20;;;21.80;57.50;;;;;;5074110;28;20227;-54
2023/08/29 10:29:55;;;;;;;3.05;1.40;;;21.80;57.50;;;;;;5071161;28;20274;-45
2023/08/29 10:32:22;;;;;;;2.47;1.30;;;21.80;57.50;;;;;;5067472;28;20301;-55
2023/08/29 10:34:52;;;;;;;3.88;1.20;;;21.70;57.40;;;;;;5067757;28;20205;-55
2023/08/29 10:37:20;;;;;;;1.80;1.40;;;21.70;57.40;;;;;;5069274;28;20625;-55
2023/08/29 10:39:47;;;;;;;4.35;1.38;;;21.70;57.40;;;;;;5065498;28;20201;-54
2023/08/29 10:42:15;;;;;;;2.05;1.25;;;21.80;57.50;;;;;;5067099;28;20314;-54
2023/08/29 10:44:44;;;;;;;4.82;1.27;;;21.70;57.40;;;;;;5067884;28;20216;-54
2023/08/29 10:47:16;;;;;;;3.45;1.65;;;21.70;57.50;;;;;;5060766;28;20246;-54
2023/08/29 10:49:43;;;;;;;2.13;1.23;;;21.70;57.50;;;;;;5062802;28;20187;-53
2023/08/29 10:52:13;;;;;;;3.10;1.40;;;21.70;57.50;;;;;;5064953;28;20294;-48
2023/08/29 10:54:41;;;;;;;1.42;1.20;;;21.70;57.50;;;;;;5060872;28;20250;-51
2023/08/29 10:57:28;;;;;;;2.78;1.20;;;21.70;57.50;;;;;;5069696;28;20718;-52
2023/08/29 10:59:55;;;;;;;4.13;1.50;;;21.70;57.60;;;;;;5062502;28;20205;-56
2023/08/29 11:02:23;;;;;;;2.47;1.30;;;21.70;57.60;;;;;;5067830;28;20310;-56
2023/08/29 11:04:52;;;;;;;2.95;1.33;;;21.70;57.60;;;;;;5067480;28;20206;-57
2023/08/29 11:07:26;;;;;;;2.50;1.30;;;21.70;57.70;;;;;;5085938;28;20723;-50
2023/08/29 11:10:12;;;;;;;3.17;1.25;;;21.70;57.70;;;;;;5073761;28;20197;-51
2023/08/29 11:13:06;;;;;;;4.65;1.33;;;21.70;57.70;;;;;;5075245;28;20222;-54
2023/08/29 11:16:07;;;;;;;2.17;1.30;;;21.70;57.70;;;;;;5085369;28;20194;-55
2023/08/29 11:18:34;;;;;;;1.83;1.40;;;21.80;57.90;;;;;;5081220;28;20205;-54
2023/08/29 11:21:09;;;;;;;4.97;1.48;;;21.80;57.80;;;;;;5067766;28;20220;-55
2023/08/29 11:23:40;;;;;;;1.65;1.55;;;21.80;57.80;;;;;;5061785;28;20305;-54
2023/08/29 11:26:09;;;;;;;2.53;1.30;;;21.90;57.80;;;;;;5057720;28;20899;-52
2023/08/29 11:28:40;;;;;;;4.43;1.27;;;21.90;57.70;;;;;;5061908;28;20187;-53
2023/08/29 11:31:07;;;;;;;1.95;1.30;;;21.90;57.70;;;;;;5075260;28;20206;-54
2023/08/29 11:33:36;;;;;;;3.25;1.50;;;21.90;57.70;;;;;;5069618;28;20203;-55
2023/08/29 11:36:05;;;;;;;2.28;1.40;;;21.90;57.70;;;;;;5049616;28;20749;-56
2023/08/29 11:38:33;;;;;;;4.20;1.27;;;21.90;57.70;;;;;;5051825;28;20233;-53
2023/08/29 11:41:04;;;;;;;1.45;1.17;;;21.90;57.60;;;;;;5066336;28;20835;-55
2023/08/29 11:43:32;;;;;;;4.57;1.20;;;21.90;57.60;;;;;;5065039;28;20291;-56
2023/08/29 11:46:01;;;;;;;1.70;1.10;;;21.90;57.60;;;;;;5069438;28;20310;-48
2023/08/29 11:48:29;;;;;;;1.98;1.30;;;21.90;57.60;;;;;;5064865;28;20313;-52
2023/08/29 11:50:57;;;;;;;6.07;1.40;;;21.90;57.50;;;;;;5066065;28;20218;-52
2023/08/29 11:53:28;;;;;;;4.40;1.38;;;22.00;57.50;;;;;;5069038;28;20325;-49
2023/08/29 11:55:57;;;;;;;3.72;1.40;;;22.00;57.50;;;;;;5068519;28;20237;-51
2023/08/29 11:58:33;;;;;;;2.33;1.30;;;22.00;57.50;;;;;;5060983;28;20215;-51
2023/08/29 12:01:02;;;;;;;2.00;1.20;;;22.10;57.40;;;;;;5062752;28;20194;-51
2023/08/29 12:03:30;;;;;;;3.75;1.42;;;22.10;57.40;;;;;;5055201;28;20245;-54
2023/08/29 12:05:59;;;;;;;5.55;1.50;;;22.10;57.40;;;;;;5030625;28;20217;-53
2023/08/29 12:08:39;;;;;;;8.57;1.83;;;22.10;57.40;;;;;;5042516;28;20229;-54
2023/08/29 12:11:08;;;;;;;4.53;1.15;;;22.10;57.40;;;;;;5059572;28;20661;-50
2023/08/29 12:13:37;;;;;;;8.35;1.05;;;22.10;57.30;;;;;;5064027;28;20257;-53
2023/08/29 12:16:14;;;;;;;5.65;1.35;;;22.20;57.40;;;;;;5017561;28;20203;-50
2023/08/29 12:18:42;;;;;;;4.10;1.02;;;22.20;57.40;;;;;;5059819;28;20231;-51
2023/08/29 12:21:16;;;;;;;13.93;1.38;;;22.20;57.40;;;;;;5055794;28;20198;-51
2023/08/29 12:23:45;;;;;;;5.18;1.30;;;22.30;57.50;;;;;;5059049;28;20233;-52
2023/08/29 12:26:14;;;;;;;4.40;1.35;;;22.20;57.40;;;;;;5056196;28;20660;-52
2023/08/29 12:28:43;;;;;;;2.10;1.20;;;22.30;57.40;;;;;;5052402;28;20222;-52
2023/08/29 12:31:11;;;;;;;3.75;1.40;;;22.30;57.20;;;;;;5054868;28;20203;-52
2023/08/29 12:33:40;;;;;;;2.60;1.15;;;22.30;57.10;;;;;;5018637;28;20248;-49
2023/08/29 12:36:07;;;;;;;4.05;1.60;;;22.30;57.10;;;;;;5055043;28;20722;-55
2023/08/29 12:38:35;;;;;;;2.53;1.23;;;22.30;56.90;;;;;;5056250;28;20298;-53
2023/08/29 12:41:03;;;;;;;1.73;1.17;;;22.40;57.00;;;;;;5057032;28;20568;-56
2023/08/29 12:43:30;;;;;;;5.82;1.40;;;22.30;56.80;;;;;;5057132;28;20241;-54
2023/08/29 12:45:58;;;;;;;4.20;1.25;;;22.30;56.80;;;;;;5060465;28;20218;-52
2023/08/29 12:48:25;;;;;;;3.65;1.20;;;22.40;56.80;;;;;;5056685;28;20218;-52
2023/08/29 12:50:52;;;;;;;2.17;1.30;;;22.40;56.70;;;;;;5052686;28;20315;-55